Time;durP1;ratioP1;P1;durP2;ratioP2;P2;SDS_P1;SDS_P2;PMS_P1;PMS_P2;Temp;Humidity;BMP_temperature;BMP_pressure;BME280_temperature;BME280_humidity;BME280_pressure;Samples;Min_cycle;Max_cycle;Signal;HPM_P1;HPM_P2
2021/10/15 00:00:12;;;;;;;;;;;26.90;42.90;;;;;;5077833;28;19912;-81
2021/10/15 00:02:38;;;;;;;;;;;26.80;42.90;;;;;;5077643;28;20238;-82
2021/10/15 00:05:04;;;;;;;;;;;26.90;42.90;;;;;;5094347;28;19952;-80
2021/10/15 00:07:32;;;;;;;;;;;26.80;42.90;;;;;;5094279;28;19915;-79
2021/10/15 00:09:58;;;;;;;;;;;26.80;43.00;;;;;;5077316;28;19961;-84
2021/10/15 00:12:23;;;;;;;;;;;26.80;43.00;;;;;;5094396;28;19943;-79
2021/10/15 00:14:51;;;;;;;;;;;26.80;43.00;;;;;;5094206;28;20320;-82
2021/10/15 00:17:17;;;;;;;;;;;26.80;43.00;;;;;;5077596;28;19908;-80
2021/10/15 00:19:45;;;;;;;;;;;26.70;43.10;;;;;;5077520;28;20010;-80
2021/10/15 00:22:13;;;;;;;;;;;26.70;43.20;;;;;;5077532;28;19908;-79
2021/10/15 00:24:39;;;;;;;;;;;26.70;43.20;;;;;;5093983;28;20337;-82
2021/10/15 00:27:04;;;;;;;;;;;26.70;43.10;;;;;;5094010;28;19919;-78
2021/10/15 00:29:29;;;;;;;;;;;26.70;43.10;;;;;;5094087;28;20020;-78
2021/10/15 00:31:55;;;;;;;;;;;26.80;43.10;;;;;;5077374;28;20011;-79
2021/10/15 00:34:21;;;;;;;;;;;26.70;43.10;;;;;;5094133;28;19915;-80
2021/10/15 00:36:46;;;;;;;;;;;26.70;43.10;;;;;;5093926;28;20276;-81
2021/10/15 00:39:11;;;;;;;;;;;26.70;43.10;;;;;;5094021;28;20233;-81
2021/10/15 00:41:42;;;;;;;;;;;26.80;43.10;;;;;;5094598;28;19919;-83
2021/10/15 00:44:08;;;;;;;;;;;26.70;43.10;;;;;;5093957;28;19909;-83
2021/10/15 00:46:36;;;;;;;;;;;26.70;43.20;;;;;;5076938;28;19908;-81
2021/10/15 00:49:29;;;;;;;;;;;26.70;43.10;;;;;;5093963;28;19908;-80
2021/10/15 00:51:57;;;;;;;;;;;26.70;43.10;;;;;;5094724;28;20341;-82
2021/10/15 00:54:25;;;;;;;;;;;26.70;43.20;;;;;;5093795;28;19908;-81
2021/10/15 00:56:50;;;;;;;;;;;26.70;43.30;;;;;;5093877;28;19909;-78
2021/10/15 00:59:16;;;;;;;;;;;26.70;43.20;;;;;;5073436;28;20394;-82
2021/10/15 01:01:44;;;;;;;;;;;26.70;43.20;;;;;;5107710;28;20326;-79
2021/10/15 01:04:09;;;;;;;;;;;26.70;43.20;;;;;;5107088;28;19920;-80
2021/10/15 01:06:35;;;;;;;;;;;26.70;43.90;;;;;;5075155;28;19909;-80
2021/10/15 01:09:01;;;;;;;;;;;26.70;43.20;;;;;;5109100;28;19933;-82
2021/10/15 01:11:26;;;;;;;;;;;26.60;43.30;;;;;;5111183;28;19935;-77
2021/10/15 01:13:52;;;;;;;;;;;26.70;43.40;;;;;;5111103;28;19917;-81
2021/10/15 01:16:17;;;;;;;;;;;26.70;43.40;;;;;;5111190;28;20360;-81
2021/10/15 01:18:45;;;;;;;;;;;26.70;43.40;;;;;;5110775;28;19920;-82
2021/10/15 01:21:11;;;;;;;;;;;26.60;43.40;;;;;;5077836;28;19913;-79
2021/10/15 01:23:37;;;;;;;;;;;26.60;43.50;;;;;;5111117;28;19909;-82
2021/10/15 01:26:02;;;;;;;;;;;26.60;43.60;;;;;;5093626;28;20380;-78
2021/10/15 01:28:28;;;;;;;;;;;26.60;43.50;;;;;;5077666;28;20293;-79
2021/10/15 01:30:53;;;;;;;;;;;26.60;43.50;;;;;;5110776;28;19948;-81
2021/10/15 01:33:19;;;;;;;;;;;26.60;43.50;;;;;;5110594;28;20007;-80
2021/10/15 01:35:44;;;;;;;;;;;26.60;43.50;;;;;;5077543;28;19960;-78
2021/10/15 01:38:10;;;;;;;;;;;26.50;43.50;;;;;;5077387;28;19908;-83
2021/10/15 01:40:38;;;;;;;;;;;26.50;43.60;;;;;;5110586;28;19913;-81
2021/10/15 01:43:03;;;;;;;;;;;26.40;43.70;;;;;;5109820;28;19913;-79
2021/10/15 01:45:34;;;;;;;;;;;26.50;43.70;;;;;;5093371;28;19921;-79
2021/10/15 01:48:00;;;;;;;;;;;26.50;43.70;;;;;;5109672;28;19910;-79
2021/10/15 01:50:25;;;;;;;;;;;26.40;43.70;;;;;;5110338;28;19919;-85
2021/10/15 01:52:53;;;;;;;;;;;26.40;43.70;;;;;;5077302;28;19909;-81
2021/10/15 01:55:21;;;;;;;;;;;26.40;43.80;;;;;;5109943;28;19913;-78
2021/10/15 01:57:47;;;;;;;;;;;26.40;43.80;;;;;;5093582;28;19919;-77
2021/10/15 02:00:12;;;;;;;;;;;26.30;43.90;;;;;;5113364;28;19919;-81
2021/10/15 02:02:38;;;;;;;;;;;26.30;43.90;;;;;;5113363;28;19908;-78
2021/10/15 02:05:04;;;;;;;;;;;26.30;43.90;;;;;;5113527;28;19919;-78
2021/10/15 02:07:32;;;;;;;;;;;26.30;43.90;;;;;;5130631;27;19907;-83
2021/10/15 02:09:58;;;;;;;;;;;26.30;44.00;;;;;;5129826;27;20344;-77
2021/10/15 02:12:23;;;;;;;;;;;26.30;44.00;;;;;;5096344;28;19908;-80
2021/10/15 02:14:51;;;;;;;;;;;26.30;44.00;;;;;;5113794;28;19908;-80
2021/10/15 02:17:19;;;;;;;;;;;26.30;44.00;;;;;;5129959;27;19908;-81
2021/10/15 02:19:47;;;;;;;;;;;26.30;44.10;;;;;;5129250;27;19912;-81
2021/10/15 02:22:12;;;;;;;;;;;26.30;44.00;;;;;;5112350;28;20002;-81
2021/10/15 02:24:38;;;;;;;;;;;26.20;44.10;;;;;;5095902;28;20061;-80
2021/10/15 02:27:03;;;;;;;;;;;26.20;44.10;;;;;;5129990;27;19920;-80
2021/10/15 02:29:31;;;;;;;;;;;26.20;44.20;;;;;;5130428;27;20030;-82
2021/10/15 02:31:59;;;;;;;;;;;26.20;44.20;;;;;;5129367;27;19919;-79
2021/10/15 02:34:27;;;;;;;;;;;26.20;44.10;;;;;;5129401;27;19951;-81
2021/10/15 02:36:55;;;;;;;;;;;26.20;44.20;;;;;;5096448;28;20276;-80
2021/10/15 02:39:20;;;;;;;;;;;26.20;44.20;;;;;;5129744;27;19912;-78
2021/10/15 02:41:46;;;;;;;;;;;26.20;44.20;;;;;;5112691;28;19930;-80
2021/10/15 02:44:14;;;;;;;;;;;26.10;44.20;;;;;;5095798;28;19961;-79
2021/10/15 02:46:45;;;;;;;;;;;26.10;44.20;;;;;;5128989;27;19995;-81
2021/10/15 02:49:12;;;;;;;;;;;26.20;44.30;;;;;;5096603;28;19908;-82
2021/10/15 02:51:38;;;;;;;;;;;26.10;44.20;;;;;;5112471;28;19999;-82
2021/10/15 02:54:03;;;;;;;;;;;26.10;44.30;;;;;;5095963;28;19955;-78
2021/10/15 02:56:31;;;;;;;;;;;26.10;44.40;;;;;;5129448;27;20303;-82
2021/10/15 02:59:00;;;;;;;;;;;26.10;44.40;;;;;;5095303;28;20056;-81
2021/10/15 03:01:26;;;;;;;;;;;26.10;44.30;;;;;;5111876;28;20253;-80
2021/10/15 03:03:51;;;;;;;;;;;26.10;44.40;;;;;;5095255;28;19912;-81
2021/10/15 03:06:17;;;;;;;;;;;26.10;44.50;;;;;;5129757;27;20301;-80
2021/10/15 03:08:42;;;;;;;;;;;26.00;44.60;;;;;;5129294;27;20333;-77
2021/10/15 03:11:08;;;;;;;;;;;25.90;44.50;;;;;;5129053;27;20268;-77
2021/10/15 03:13:36;;;;;;;;;;;26.00;44.60;;;;;;5095962;28;19995;-80
2021/10/15 03:16:02;;;;;;;;;;;25.90;44.60;;;;;;5095223;28;19919;-79
2021/10/15 03:18:29;;;;;;;;;;;25.90;44.70;;;;;;5078409;28;19908;-81
2021/10/15 03:20:55;;;;;;;;;;;26.00;44.60;;;;;;5094786;28;19995;-81
2021/10/15 03:23:20;;;;;;;;;;;25.90;44.60;;;;;;5094966;28;20310;-79
2021/10/15 03:25:51;;;;;;;;;;;25.90;44.60;;;;;;5095070;28;19916;-78
2021/10/15 03:28:17;;;;;;;;;;;25.90;44.80;;;;;;5094812;28;19908;-81
2021/10/15 03:30:42;;;;;;;;;;;25.90;44.60;;;;;;5077764;28;19912;-80
2021/10/15 03:33:08;;;;;;;;;;;25.90;44.60;;;;;;5094002;28;19916;-79
2021/10/15 03:35:36;;;;;;;;;;;25.90;44.60;;;;;;5094554;28;21239;-81
2021/10/15 03:38:03;;;;;;;;;;;25.90;44.70;;;;;;5094844;28;19919;-81
2021/10/15 03:40:31;;;;;;;;;;;25.90;44.80;;;;;;5094666;28;19919;-80
2021/10/15 03:43:02;;;;;;;;;;;25.90;44.80;;;;;;5094646;28;19915;-80
2021/10/15 03:45:30;;;;;;;;;;;25.90;44.70;;;;;;5094605;28;19918;-77
2021/10/15 03:47:55;;;;;;;;;;;25.90;44.70;;;;;;5094445;28;19914;-80
2021/10/15 03:50:21;;;;;;;;;;;25.90;44.70;;;;;;5094521;28;19908;-77
2021/10/15 03:52:46;;;;;;;;;;;25.90;44.70;;;;;;5094579;28;19908;-79
2021/10/15 03:55:12;;;;;;;;;;;25.90;44.80;;;;;;5094712;28;20340;-77
2021/10/15 03:57:38;;;;;;;;;;;25.80;44.80;;;;;;5094725;28;20326;-77
2021/10/15 04:00:04;;;;;;;;;;;25.80;44.90;;;;;;5074087;28;19916;-81
2021/10/15 04:02:32;;;;;;;;;;;25.80;44.90;;;;;;5091186;28;19959;-78
2021/10/15 04:04:57;;;;;;;;;;;25.80;44.90;;;;;;5090946;28;19908;-79
2021/10/15 04:07:23;;;;;;;;;;;25.80;44.90;;;;;;5090984;28;19915;-77
2021/10/15 04:09:51;;;;;;;;;;;25.80;44.90;;;;;;5090881;28;19913;-79
2021/10/15 04:12:16;;;;;;;;;;;25.80;45.00;;;;;;5111528;28;19969;-78
2021/10/15 04:14:42;;;;;;;;;;;25.80;44.90;;;;;;5094924;28;19913;-78
2021/10/15 04:17:10;;;;;;;;;;;25.80;45.00;;;;;;5077303;28;19948;-80
2021/10/15 04:19:38;;;;;;;;;;;25.70;44.90;;;;;;5094103;28;19912;-79
2021/10/15 04:22:03;;;;;;;;;;;25.80;44.90;;;;;;5094178;28;20318;-80
2021/10/15 04:24:29;;;;;;;;;;;25.70;44.90;;;;;;5077455;28;19956;-80
2021/10/15 04:26:57;;;;;;;;;;;25.70;44.90;;;;;;5077670;28;19995;-83
2021/10/15 04:29:22;;;;;;;;;;;25.80;45.00;;;;;;5094196;28;19941;-84
2021/10/15 04:31:53;;;;;;;;;;;25.70;44.90;;;;;;5077230;28;19919;-81
2021/10/15 04:34:18;;;;;;;;;;;25.70;45.00;;;;;;5077545;28;20313;-78
2021/10/15 04:36:44;;;;;;;;;;;25.70;44.90;;;;;;5094674;28;19977;-80
2021/10/15 04:39:11;;;;;;;;;;;25.70;44.90;;;;;;5077452;28;19923;-79
2021/10/15 04:41:37;;;;;;;;;;;25.70;44.90;;;;;;5094179;28;20341;-79
2021/10/15 04:44:03;;;;;;;;;;;25.70;44.90;;;;;;5096109;28;19966;-78
2021/10/15 04:46:30;;;;;;;;;;;25.70;44.90;;;;;;5099017;28;19908;-73
2021/10/15 04:48:56;;;;;;;;;;;24.80;33.50;;;;;;5098588;28;19939;-76
2021/10/15 04:51:21;;;;;;;;;;;23.30;36.20;;;;;;5097921;28;19958;-74
2021/10/15 04:53:49;;;;;;;;;;;23.50;40.00;;;;;;5098986;28;19999;-75
2021/10/15 04:56:15;;;;;;;;;;;24.00;41.40;;;;;;5097660;28;19908;-75
2021/10/15 04:58:40;;;;;;;;;;;24.40;40.60;;;;;;5097344;28;20014;-74
2021/10/15 05:01:06;;;;;;;;;;;24.80;40.00;;;;;;5098480;28;20234;-76
2021/10/15 05:03:31;;;;;;;;;;;25.10;39.70;;;;;;5097545;28;20386;-78
2021/10/15 05:05:57;;;;;;;;;;;25.40;39.50;;;;;;5114939;28;20010;-75
2021/10/15 05:08:30;;;;;;;;;;;25.50;39.40;;;;;;5114419;28;20007;-78
2021/10/15 05:10:58;;;;;;;;;;;25.70;39.40;;;;;;5129714;27;19908;-76
2021/10/15 05:13:25;;;;;;;;;;;25.80;39.40;;;;;;5113998;28;20267;-76
2021/10/15 05:15:51;;;;;;;;;;;25.90;39.50;;;;;;5098150;28;19908;-77
2021/10/15 05:18:19;;;;;;;;;;;26.00;39.80;;;;;;5097172;28;19915;-74
2021/10/15 05:20:45;;;;;;;;;;;26.00;40.00;;;;;;5097922;28;19970;-74
2021/10/15 05:23:10;;;;;;;;;;;26.10;40.30;;;;;;5080203;28;19908;-76
2021/10/15 05:25:36;;;;;;;;;;;26.10;40.70;;;;;;5080104;28;19965;-75
2021/10/15 05:28:04;;;;;;;;;;;26.10;40.90;;;;;;5097976;28;20410;-78
2021/10/15 05:30:32;;;;;;;;;;;26.10;41.20;;;;;;5097012;28;19999;-77
2021/10/15 05:32:58;;;;;;;;;;;26.10;41.60;;;;;;5080640;28;19908;-79
2021/10/15 05:35:23;;;;;;;;;;;26.10;41.80;;;;;;5096676;28;19908;-79
2021/10/15 05:37:49;;;;;;;;;;;26.10;41.90;;;;;;5097736;28;19908;-80
2021/10/15 05:40:14;;;;;;;;;;;26.10;42.00;;;;;;5096696;28;19912;-76
2021/10/15 05:42:49;;;;;;;;;;;26.10;42.20;;;;;;5096818;28;20356;-78
2021/10/15 05:45:14;;;;;;;;;;;26.20;42.30;;;;;;5080268;28;20222;-78
2021/10/15 05:47:42;;;;;;;;;;;26.20;42.30;;;;;;5096976;28;19915;-78
2021/10/15 05:50:09;;;;;;;;;;;26.20;42.50;;;;;;5097733;28;19912;-77
2021/10/15 05:52:38;;;;;;;;;;;26.20;42.80;;;;;;5096537;28;20049;-76
2021/10/15 06:00:24;;;;;;;;;;;26.30;42.90;;;;;;5097039;28;19923;-76
2021/10/15 06:02:52;;;;;;;;;;;26.20;42.90;;;;;;5096463;28;19908;-77
2021/10/15 06:16:29;;;;;;;;;;;26.30;43.00;;;;;;5076447;28;19912;-77
2021/10/15 06:19:05;;;;;;;;;;;26.30;43.10;;;;;;5097122;28;20257;-78
2021/10/15 06:21:33;;;;;;;;;;;26.30;43.10;;;;;;5097302;28;19908;-77
2021/10/15 06:24:01;;;;;;;;;;;26.30;43.10;;;;;;5096156;28;20243;-76
2021/10/15 06:26:27;;;;;;;;;;;26.30;43.10;;;;;;5097219;28;19919;-81
2021/10/15 06:28:55;;;;;;;;;;;26.30;43.10;;;;;;5096200;28;19912;-80
2021/10/15 06:31:20;;;;;;;;;;;26.30;43.10;;;;;;5095828;28;19974;-77
2021/10/15 06:33:48;;;;;;;;;;;26.30;43.30;;;;;;5078923;28;19997;-77
2021/10/15 06:36:14;;;;;;;;;;;26.30;43.70;;;;;;5096046;28;19930;-79
2021/10/15 06:38:42;;;;;;;;;;;26.30;44.00;;;;;;5096383;28;19916;-78
2021/10/15 06:41:07;;;;;;;;;;;26.30;44.10;;;;;;5079044;28;19908;-78
2021/10/15 06:43:35;;;;;;;;;;;26.30;44.20;;;;;;5095614;28;19965;-77
2021/10/15 06:46:00;;;;;;;;;;;26.30;44.10;;;;;;5095794;28;19908;-80
2021/10/15 06:48:26;;;;;;;;;;;26.40;44.20;;;;;;5078526;28;20006;-76
2021/10/15 06:50:54;;;;;;;;;;;26.40;44.20;;;;;;5096535;28;20130;-78
2021/10/15 06:53:19;;;;;;;;;;;26.40;44.20;;;;;;5096697;28;19919;-76
2021/10/15 06:55:47;;;;;;;;;;;26.50;44.20;;;;;;5096575;28;19995;-78
2021/10/15 06:58:17;;;;;;;;;;;26.50;44.20;;;;;;5096277;28;20015;-80
2021/10/15 07:00:45;;;;;;;;;;;26.60;44.20;;;;;;5095245;28;19927;-77
2021/10/15 07:03:15;;;;;;;;;;;26.50;44.20;;;;;;5111824;28;19908;-78
2021/10/15 07:05:43;;;;;;;;;;;26.60;44.30;;;;;;5129045;27;19961;-78
2021/10/15 07:08:08;;;;;;;;;;;26.70;44.10;;;;;;5128702;27;19908;-78
2021/10/15 07:10:34;;;;;;;;;;;26.80;44.00;;;;;;5111759;28;19962;-79
2021/10/15 07:12:59;;;;;;;;;;;26.90;43.90;;;;;;5129040;27;19916;-78
2021/10/15 07:15:25;;;;;;;;;;;27.00;43.60;;;;;;5094811;28;19964;-80
2021/10/15 07:17:51;;;;;;;;;;;27.10;43.30;;;;;;5111542;28;19912;-81
2021/10/15 07:20:19;;;;;;;;;;;27.10;43.20;;;;;;5128971;27;20008;-78
2021/10/15 07:22:44;;;;;;;;;;;27.10;43.10;;;;;;5129256;27;19931;-78
2021/10/15 07:25:11;;;;;;;;;;;27.10;43.00;;;;;;5129202;27;20332;-79
2021/10/15 07:27:37;;;;;;;;;;;27.10;42.90;;;;;;5094830;28;19916;-79
2021/10/15 07:30:04;;;;;;;;;;;27.10;43.10;;;;;;5111724;28;19912;-74
2021/10/15 07:32:32;;;;;;;;;;;27.10;43.00;;;;;;5095315;28;19920;-78
2021/10/15 07:34:57;;;;;;;;;;;27.10;43.10;;;;;;5128971;27;19908;-76
2021/10/15 07:37:25;;;;;;;;;;;27.10;43.10;;;;;;5111684;28;19921;-81
2021/10/15 07:39:51;;;;;;;;;;;27.10;43.10;;;;;;5111184;28;20316;-78
2021/10/15 07:42:19;;;;;;;;;;;27.00;43.10;;;;;;5111991;28;19916;-78
2021/10/15 07:44:47;;;;;;;;;;;27.00;43.10;;;;;;5111166;28;20340;-79
2021/10/15 07:47:12;;;;;;;;;;;27.10;43.50;;;;;;5110949;27;19980;-79
2021/10/15 07:49:38;;;;;;;;;;;27.10;43.30;;;;;;5074221;28;19916;-77
2021/10/15 07:52:04;;;;;;;;;;;27.20;43.60;;;;;;5075193;28;19912;-77
2021/10/15 07:54:33;;;;;;;;;;;27.20;43.50;;;;;;5074777;28;19909;-77
2021/10/15 07:57:02;;;;;;;;;;;27.30;43.20;;;;;;5074883;28;20398;-77
2021/10/15 07:59:27;;;;;;;;;;;27.30;43.00;;;;;;5098587;28;20267;-78
2021/10/15 08:01:53;;;;;;;;;;;27.30;43.10;;;;;;5127958;27;19916;-78
2021/10/15 08:04:20;;;;;;;;;;;27.30;43.20;;;;;;5111017;28;20267;-77
2021/10/15 08:06:49;;;;;;;;;;;27.30;43.10;;;;;;5094906;28;19908;-79
2021/10/15 08:09:17;;;;;;;;;;;27.30;43.00;;;;;;5127417;27;20351;-76
2021/10/15 08:11:45;;;;;;;;;;;27.30;43.00;;;;;;5094085;28;19972;-76
2021/10/15 08:14:13;;;;;;;;;;;27.30;43.00;;;;;;5127942;28;19916;-77
2021/10/15 08:16:38;;;;;;;;;;;27.30;42.80;;;;;;5094936;28;19908;-80
2021/10/15 08:19:04;;;;;;;;;;;27.30;42.70;;;;;;5078719;28;19912;-77
2021/10/15 08:21:29;;;;;;;;;;;27.40;42.60;;;;;;5084765;28;20355;-79
2021/10/15 08:23:55;;;;;;;;;;;27.40;42.70;;;;;;5087914;28;19908;-76
2021/10/15 08:26:24;;;;;;;;;;;27.50;42.60;;;;;;5097967;28;19982;-78
2021/10/15 08:28:58;;;;;;;;;;;27.50;42.50;;;;;;5099200;28;19908;-78
2021/10/15 08:31:28;;;;;;;;;;;27.50;42.70;;;;;;5098138;28;20236;-80
2021/10/15 08:33:53;;;;;;;;;;;27.60;42.70;;;;;;5097839;28;20331;-77
2021/10/15 08:36:21;;;;;;;;;;;27.60;42.70;;;;;;5097606;28;19920;-76
2021/10/15 08:38:47;;;;;;;;;;;27.60;42.50;;;;;;5097661;28;19973;-81
2021/10/15 08:41:12;;;;;;;;;;;27.60;42.60;;;;;;5098423;28;19920;-78
2021/10/15 08:43:39;;;;;;;;;;;27.60;42.50;;;;;;5097827;28;20259;-79
2021/10/15 08:46:04;;;;;;;;;;;27.60;42.60;;;;;;5098515;28;19998;-80
2021/10/15 08:48:30;;;;;;;;;;;27.60;42.50;;;;;;5097713;28;19947;-78
2021/10/15 08:50:55;;;;;;;;;;;27.60;42.60;;;;;;5098638;28;20321;-79
2021/10/15 08:53:22;;;;;;;;;;;27.60;42.50;;;;;;5080635;28;19959;-76
2021/10/15 08:55:48;;;;;;;;;;;27.60;42.50;;;;;;5080849;28;19908;-81
2021/10/15 08:58:16;;;;;;;;;;;27.60;42.50;;;;;;5098149;28;19915;-79
2021/10/15 09:00:41;;;;;;;;;;;27.60;42.50;;;;;;5097551;28;19912;-78
2021/10/15 09:03:13;;;;;;;;;;;27.60;42.60;;;;;;5098507;28;20401;-80
2021/10/15 09:05:38;;;;;;;;;;;27.60;42.40;;;;;;5098271;28;19908;-78
2021/10/15 09:08:07;;;;;;;;;;;27.60;42.30;;;;;;5131210;27;19908;-76
2021/10/15 09:10:35;;;;;;;;;;;27.60;42.40;;;;;;5131406;27;20008;-77
2021/10/15 09:13:11;;;;;;;;;;;27.60;42.30;;;;;;5131431;27;19986;-77
2021/10/15 09:15:36;;;;;;;;;;;27.60;42.30;;;;;;5097515;28;19954;-77
2021/10/15 09:18:09;;;;;;;;;;;27.60;42.30;;;;;;5114371;28;19970;-78
2021/10/15 09:20:35;;;;;;;;;;;27.60;42.30;;;;;;5097175;28;19912;-76
2021/10/15 09:23:01;;;;;;;;;;;27.60;42.30;;;;;;5097017;28;19944;-78
2021/10/15 09:25:33;;;;;;;;;;;27.60;42.40;;;;;;5096948;28;19916;-81
2021/10/15 09:27:59;;;;;;;;;;;27.60;42.90;;;;;;5097503;28;19908;-75
2021/10/15 09:30:25;;;;;;;;;;;27.60;42.40;;;;;;5113659;28;20553;-80
2021/10/15 09:32:55;;;;;;;;;;;27.60;42.50;;;;;;5130679;27;19908;-80
2021/10/15 09:35:21;;;;;;;;;;;27.60;42.40;;;;;;5113390;28;19908;-79
2021/10/15 09:37:49;;;;;;;;;;;27.60;42.50;;;;;;5113531;28;19944;-78
2021/10/15 09:40:21;;;;;;;;;;;27.60;42.40;;;;;;5130231;27;19919;-78
2021/10/15 09:42:47;;;;;;;;;;;27.60;42.40;;;;;;5114060;28;19965;-80
2021/10/15 09:45:16;;;;;;;;;;;27.60;42.40;;;;;;5113312;28;20249;-78
2021/10/15 09:47:42;;;;;;;;;;;27.60;42.40;;;;;;5097240;28;20392;-77
2021/10/15 09:50:13;;;;;;;;;;;27.60;42.50;;;;;;5096333;28;19916;-77
2021/10/15 09:52:46;;;;;;;;;;;27.60;42.40;;;;;;5130019;27;19912;-78
2021/10/15 09:55:16;;;;;;;;;;;27.60;42.50;;;;;;5113121;28;19908;-77
2021/10/15 09:57:44;;;;;;;;;;;27.60;42.40;;;;;;5113095;28;20325;-77
2021/10/15 10:00:14;;;;;;;;;;;27.60;42.50;;;;;;5113098;28;20003;-80
2021/10/15 10:02:40;;;;;;;;;;;27.60;42.50;;;;;;5129924;27;19908;-78
2021/10/15 10:05:07;;;;;;;;;;;27.60;42.50;;;;;;5112954;28;19908;-81
2021/10/15 10:07:33;;;;;;;;;;;27.60;42.50;;;;;;5130140;27;19984;-78
2021/10/15 10:10:02;;;;;;;;;;;27.60;42.50;;;;;;5112918;28;20278;-81
2021/10/15 10:12:27;;;;;;;;;;;27.60;42.60;;;;;;5112923;28;19919;-78
2021/10/15 10:14:52;;;;;;;;;;;27.60;42.60;;;;;;5079266;28;19912;-78
2021/10/15 10:17:21;;;;;;;;;;;27.60;42.60;;;;;;5078819;28;19908;-78
2021/10/15 10:19:47;;;;;;;;;;;27.60;42.60;;;;;;5095794;28;19912;-80
2021/10/15 10:22:16;;;;;;;;;;;27.60;42.60;;;;;;5095483;28;19920;-79
2021/10/15 10:24:46;;;;;;;;;;;27.60;42.60;;;;;;5095934;28;19908;-81
2021/10/15 10:27:14;;;;;;;;;;;27.60;42.60;;;;;;5095620;28;20382;-78
2021/10/15 10:29:53;;;;;;;;;;;27.50;42.60;;;;;;5095338;28;19909;-77
2021/10/15 10:32:19;;;;;;;;;;;27.50;42.60;;;;;;5095606;28;20394;-81
2021/10/15 10:34:46;;;;;;;;;;;27.50;42.70;;;;;;5096357;28;19915;-78
2021/10/15 10:37:15;;;;;;;;;;;27.50;42.70;;;;;;5078272;28;20369;-77
2021/10/15 10:39:43;;;;;;;;;;;27.60;42.70;;;;;;5095301;28;19922;-80
2021/10/15 10:42:08;;;;;;;;;;;27.60;42.70;;;;;;5094969;28;19908;-77
2021/10/15 10:44:37;;;;;;;;;;;27.60;42.70;;;;;;5095314;28;19915;-79
2021/10/15 10:47:09;;;;;;;;;;;27.50;42.60;;;;;;5078450;28;19912;-78
2021/10/15 10:49:34;;;;;;;;;;;27.50;42.60;;;;;;5095379;28;19908;-77
2021/10/15 10:52:07;;;;;;;;;;;27.50;42.70;;;;;;5078434;28;19908;-75
2021/10/15 10:54:33;;;;;;;;;;;27.50;42.70;;;;;;5095105;28;19977;-77
2021/10/15 10:57:00;;;;;;;;;;;27.50;42.70;;;;;;5095948;28;20306;-79
2021/10/15 10:59:25;;;;;;;;;;;27.50;43.30;;;;;;5094690;28;19923;-78
2021/10/15 11:01:52;;;;;;;;;;;27.60;42.80;;;;;;5094586;28;20374;-78
2021/10/15 11:04:27;;;;;;;;;;;27.50;42.70;;;;;;5077537;28;19908;-79
2021/10/15 11:07:16;;;;;;;;;;;27.50;42.80;;;;;;5077502;28;20343;-75
2021/10/15 11:09:45;;;;;;;;;;;27.50;42.80;;;;;;5086557;28;19909;-78
2021/10/15 11:12:16;;;;;;;;;;;27.50;42.90;;;;;;5095305;28;19908;-80
2021/10/15 11:14:57;;;;;;;;;;;27.50;42.80;;;;;;5094330;28;19909;-78
2021/10/15 11:17:28;;;;;;;;;;;27.50;42.80;;;;;;5094220;28;19908;-78
2021/10/15 11:20:16;;;;;;;;;;;27.50;42.90;;;;;;5095060;28;19916;-77
2021/10/15 11:22:42;;;;;;;;;;;27.50;42.90;;;;;;5094241;28;20229;-75
2021/10/15 11:25:10;;;;;;;;;;;27.50;42.90;;;;;;5094113;28;19962;-78
2021/10/15 11:27:38;;;;;;;;;;;27.50;42.90;;;;;;5094227;28;19915;-77
2021/10/15 11:30:06;;;;;;;;;;;27.50;42.90;;;;;;5077094;28;20010;-76
2021/10/15 11:32:36;;;;;;;;;;;27.50;42.90;;;;;;5093878;28;19908;-79
2021/10/15 11:35:05;;;;;;;;;;;27.50;43.00;;;;;;5094072;28;20348;-77
2021/10/15 11:37:40;;;;;;;;;;;27.50;43.00;;;;;;5076958;28;20045;-80
2021/10/15 11:40:15;;;;;;;;;;;27.50;43.10;;;;;;5094007;28;19912;-78
2021/10/15 11:42:41;;;;;;;;;;;27.50;43.00;;;;;;5077331;28;19912;-80
2021/10/15 11:45:25;;;;;;;;;;;27.50;43.10;;;;;;5095196;28;20317;-78
2021/10/15 11:47:58;;;;;;;;;;;27.50;43.00;;;;;;5077284;28;20036;-78
2021/10/15 11:50:36;;;;;;;;;;;27.50;43.00;;;;;;5094924;28;19915;-77
2021/10/15 11:53:01;;;;;;;;;;;27.50;43.10;;;;;;5093148;28;20206;-76
2021/10/15 11:55:37;;;;;;;;;;;27.50;43.10;;;;;;5077467;28;19908;-87
2021/10/15 11:58:17;;;;;;;;;;;27.50;43.10;;;;;;5077289;28;19947;-79
2021/10/15 12:01:00;;;;;;;;;;;27.50;43.10;;;;;;5093474;28;20299;-77
2021/10/15 12:03:49;;;;;;;;;;;27.50;43.10;;;;;;5094400;28;19912;-79
2021/10/15 12:06:18;;;;;;;;;;;27.50;43.10;;;;;;5093642;28;19908;-78
2021/10/15 12:08:46;;;;;;;;;;;27.50;43.10;;;;;;5094490;28;19912;-80
2021/10/15 12:11:16;;;;;;;;;;;27.60;43.10;;;;;;5093842;28;19995;-79
2021/10/15 12:13:44;;;;;;;;;;;27.60;43.10;;;;;;5076820;28;20356;-77
2021/10/15 12:16:16;;;;;;;;;;;27.60;43.20;;;;;;5094099;28;19915;-79
2021/10/15 12:18:42;;;;;;;;;;;27.60;43.20;;;;;;5093656;28;19999;-76
2021/10/15 12:21:13;;;;;;;;;;;27.60;43.10;;;;;;5094036;28;20261;-78
2021/10/15 12:23:54;;;;;;;;;;;27.50;43.10;;;;;;5094939;28;19957;-79
2021/10/15 12:26:20;;;;;;;;;;;27.50;43.10;;;;;;5077209;28;19908;-76
2021/10/15 12:28:45;;;;;;;;;;;27.50;43.20;;;;;;5093465;28;19908;-79
2021/10/15 12:31:24;;;;;;;;;;;27.50;43.10;;;;;;5094428;28;20440;-77
2021/10/15 12:34:21;;;;;;;;;;;27.50;43.10;;;;;;5093577;28;19908;-80
2021/10/15 12:36:49;;;;;;;;;;;27.50;43.20;;;;;;5085746;28;19931;-78
2021/10/15 12:39:24;;;;;;;;;;;27.60;43.20;;;;;;5094338;28;19916;-81
2021/10/15 12:41:53;;;;;;;;;;;27.60;43.20;;;;;;5093672;28;19908;-74
2021/10/15 12:44:31;;;;;;;;;;;27.60;43.10;;;;;;5076804;28;19915;-78
2021/10/15 12:46:58;;;;;;;;;;;27.60;43.00;;;;;;5094529;28;19923;-80
2021/10/15 12:49:26;;;;;;;;;;;27.60;43.00;;;;;;5076161;28;20002;-76
2021/10/15 12:51:52;;;;;;;;;;;27.60;43.00;;;;;;5093231;28;19986;-78
2021/10/15 12:54:38;;;;;;;;;;;27.60;43.00;;;;;;5094040;28;20285;-76
2021/10/15 12:57:13;;;;;;;;;;;27.70;43.00;;;;;;5093305;28;19958;-79
2021/10/15 12:59:41;;;;;;;;;;;27.70;42.90;;;;;;5093500;28;19963;-78
2021/10/15 13:02:07;;;;;;;;;;;27.70;42.90;;;;;;5093931;28;19919;-77
2021/10/15 13:04:34;;;;;;;;;;;27.70;41.40;;;;;;5094633;28;20130;-76
2021/10/15 13:06:59;;;;;;;;;;;27.70;39.60;;;;;;5081216;28;20256;-77
2021/10/15 13:09:25;;;;;;;;;;;27.60;38.80;;;;;;5097596;28;19916;-77
2021/10/15 13:11:50;;;;;;;;;;;27.60;38.60;;;;;;5080374;28;20003;-76
2021/10/15 13:14:18;;;;;;;;;;;27.60;37.80;;;;;;5080348;28;19908;-75
2021/10/15 13:16:44;;;;;;;;;;;27.60;37.90;;;;;;5096976;28;19923;-81
2021/10/15 13:19:09;;;;;;;;;;;27.60;37.70;;;;;;5079778;28;20238;-79
2021/10/15 13:21:38;;;;;;;;;;;27.50;37.20;;;;;;5096841;28;19931;-77
2021/10/15 13:24:06;;;;;;;;;;;27.60;36.40;;;;;;5097483;28;19969;-82
2021/10/15 13:26:32;;;;;;;;;;;27.50;35.80;;;;;;5080146;28;19938;-79
2021/10/15 13:28:57;;;;;;;;;;;27.50;35.60;;;;;;5097346;28;19912;-77
2021/10/15 13:31:23;;;;;;;;;;;27.50;35.90;;;;;;5098674;28;20014;-79
2021/10/15 13:33:51;;;;;;;;;;;27.50;36.90;;;;;;5097101;28;20002;-78
2021/10/15 13:36:17;;;;;;;;;;;27.50;37.60;;;;;;5096936;28;19920;-80
2021/10/15 13:38:47;;;;;;;;;;;27.60;38.00;;;;;;5096559;28;20004;-79
2021/10/15 13:41:17;;;;;;;;;;;27.60;38.30;;;;;;5097944;28;19916;-80
2021/10/15 13:51:49;;;;;;;;;;;27.80;39.20;;;;;;5096234;28;20010;-79
2021/10/15 13:54:16;;;;;;;;;;;27.80;39.10;;;;;;5096385;28;19963;-83
2021/10/15 13:56:44;;;;;;;;;;;27.80;39.20;;;;;;5097131;28;19908;-78
2021/10/15 13:59:20;;;;;;;;;;;27.90;39.20;;;;;;5095992;28;19965;-81
2021/10/15 14:01:54;;;;;;;;;;;27.80;39.20;;;;;;5096133;28;19908;-78
2021/10/15 14:04:41;;;;;;;;;;;27.90;39.40;;;;;;5096084;28;19912;-76
2021/10/15 14:07:10;;;;;;;;;;;27.80;39.50;;;;;;5095800;28;20391;-81
2021/10/15 14:09:35;;;;;;;;;;;27.80;39.50;;;;;;5078563;28;19916;-78
2021/10/15 14:12:03;;;;;;;;;;;27.80;39.60;;;;;;5095699;28;20326;-80
2021/10/15 14:14:29;;;;;;;;;;;27.80;39.60;;;;;;5096975;28;19936;-78
2021/10/15 14:16:57;;;;;;;;;;;27.80;39.70;;;;;;5079002;28;19954;-76
2021/10/15 14:19:23;;;;;;;;;;;27.90;39.80;;;;;;5079168;28;19962;-77
2021/10/15 14:21:48;;;;;;;;;;;27.90;39.90;;;;;;5078848;28;19908;-77
2021/10/15 14:24:16;;;;;;;;;;;27.90;39.90;;;;;;5095445;28;19976;-78
2021/10/15 14:26:42;;;;;;;;;;;27.90;40.00;;;;;;5095544;28;19923;-77
2021/10/15 14:29:07;;;;;;;;;;;27.90;40.10;;;;;;5096044;28;20321;-78
2021/10/15 14:31:33;;;;;;;;;;;27.90;40.10;;;;;;5078826;28;19934;-80
2021/10/15 14:33:58;;;;;;;;;;;27.90;40.10;;;;;;5097122;28;20629;-78
2021/10/15 14:36:29;;;;;;;;;;;27.90;40.20;;;;;;5095932;28;19924;-76
2021/10/15 14:38:55;;;;;;;;;;;27.90;40.30;;;;;;5095796;28;20341;-81
2021/10/15 14:41:23;;;;;;;;;;;27.90;40.40;;;;;;5095753;28;19908;-80
2021/10/15 14:43:49;;;;;;;;;;;27.90;40.40;;;;;;5095630;28;19973;-80